Time;durP1;ratioP1;P1;durP2;ratioP2;P2;SDS_P1;SDS_P2;PMS_P1;PMS_P2;Temp;Humidity;BMP_temperature;BMP_pressure;BME280_temperature;BME280_humidity;BME280_pressure;Samples;Min_cycle;Max_cycle;Signal;HPM_P1;HPM_P2
2022/07/07 00:01:51;;;;;;;4.60;3.53;;;;;;;;;;5095722;28;20020;-73
2022/07/07 00:04:17;;;;;;;6.15;3.63;;;;;;;;;;5095834;28;20077;-73
2022/07/07 00:06:43;;;;;;;7.47;3.67;;;;;;;;;;5095652;28;20091;-77
2022/07/07 00:09:09;;;;;;;3.47;3.15;;;;;;;;;;5095735;28;20144;-73
2022/07/07 00:11:35;;;;;;;4.50;3.58;;;;;;;;;;5095232;28;20521;-73
2022/07/07 00:14:02;;;;;;;5.03;3.45;;;;;;;;;;5095413;28;20040;-73
2022/07/07 00:16:28;;;;;;;5.30;3.70;;;;;;;;;;5076698;28;20043;-73
2022/07/07 00:18:55;;;;;;;6.43;3.42;;;;;;;;;;5095336;28;20472;-73
2022/07/07 00:21:21;;;;;;;4.93;3.65;;;;;;;;;;5095322;28;20028;-75
2022/07/07 00:23:47;;;;;;;5.32;3.50;;;;;;;;;;5095369;28;20016;-73
2022/07/07 00:26:13;;;;;;;6.93;3.60;;;;;;;;;;5095240;28;20028;-73
2022/07/07 00:28:39;;;;;;;6.38;3.75;;;;;;;;;;5095256;28;20050;-81
2022/07/07 00:31:05;;;;;;;5.10;3.13;;;;;;;;;;5094934;28;20031;-76
2022/07/07 00:33:31;;;;;;;8.50;3.78;;;;;;;;;;5095166;28;20020;-82
2022/07/07 00:35:58;;;;;;;4.38;3.15;;;;;;;;;;5095195;28;20020;-85
2022/07/07 00:38:24;;;;;;;4.45;3.38;;;;;;;;;;5077154;28;20474;-85
2022/07/07 00:40:50;;;;;;;5.43;3.35;;;;;;;;;;5094241;28;20099;-84
2022/07/07 00:43:17;;;;;;;5.07;3.63;;;;;;;;;;5095279;28;20032;-83
2022/07/07 00:45:46;;;;;;;3.60;3.08;;;;;;;;;;5095312;28;20056;-82
2022/07/07 00:48:13;;;;;;;6.03;3.42;;;;;;;;;;5095192;28;20020;-83
2022/07/07 00:50:39;;;;;;;3.65;3.30;;;;;;;;;;5095387;28;20074;-82
2022/07/07 00:53:05;;;;;;;4.72;3.50;;;;;;;;;;5095278;28;20031;-75
2022/07/07 00:55:31;;;;;;;5.57;3.67;;;;;;;;;;5095008;28;20024;-80
2022/07/07 00:57:57;;;;;;;4.60;4.05;;;;;;;;;;5095289;28;20020;-82
2022/07/07 01:00:23;;;;;;;6.55;4.60;;;;;;;;;;5076547;28;20378;-83
2022/07/07 01:02:49;;;;;;;7.70;3.95;;;;;;;;;;5094884;28;20420;-80
2022/07/07 01:05:16;;;;;;;5.68;4.63;;;;;;;;;;5094991;28;20032;-84
2022/07/07 01:07:43;;;;;;;6.82;3.75;;;;;;;;;;5094784;28;20535;-83
2022/07/07 01:10:09;;;;;;;10.15;3.90;;;;;;;;;;5094887;28;20481;-83
2022/07/07 01:12:36;;;;;;;5.47;3.75;;;;;;;;;;5094653;28;20059;-83
2022/07/07 01:15:06;;;;;;;8.95;3.50;;;;;;;;;;5094609;28;20024;-82
2022/07/07 01:17:32;;;;;;;6.30;3.75;;;;;;;;;;5094617;28;20037;-83
2022/07/07 01:19:59;;;;;;;7.47;3.97;;;;;;;;;;5094564;28;20139;-81
2022/07/07 01:22:31;;;;;;;5.43;3.30;;;;;;;;;;5094653;28;20028;-82
2022/07/07 01:24:57;;;;;;;4.53;3.70;;;;;;;;;;5094546;28;20080;-79
2022/07/07 01:27:24;;;;;;;4.72;3.70;;;;;;;;;;5094521;28;20094;-83
2022/07/07 01:29:51;;;;;;;4.10;3.25;;;;;;;;;;5094451;28;20020;-81
2022/07/07 01:32:17;;;;;;;5.15;3.65;;;;;;;;;;5094199;28;20381;-83
2022/07/07 01:34:45;;;;;;;4.57;3.30;;;;;;;;;;5094410;28;20021;-83
2022/07/07 01:37:11;;;;;;;4.13;3.28;;;;;;;;;;5094255;28;20385;-83
2022/07/07 01:39:37;;;;;;;4.15;3.50;;;;;;;;;;5094187;28;20024;-83
2022/07/07 01:42:04;;;;;;;4.10;3.00;;;;;;;;;;5094262;28;20028;-83
2022/07/07 01:44:34;;;;;;;3.40;3.10;;;;;;;;;;5094310;28;20032;-83
2022/07/07 01:47:00;;;;;;;3.80;3.38;;;;;;;;;;5093999;28;20016;-83
2022/07/07 01:49:27;;;;;;;5.03;3.42;;;;;;;;;;5094079;28;20024;-82
2022/07/07 01:51:53;;;;;;;3.85;3.00;;;;;;;;;;5075263;28;20458;-82
2022/07/07 01:54:19;;;;;;;4.50;3.40;;;;;;;;;;5094406;28;20478;-83
2022/07/07 01:56:46;;;;;;;6.38;3.42;;;;;;;;;;5093978;28;20416;-79
2022/07/07 01:59:12;;;;;;;4.22;3.03;;;;;;;;;;5093915;28;20028;-80
2022/07/07 02:01:38;;;;;;;6.38;3.30;;;;;;;;;;5093576;28;20024;-79
2022/07/07 02:04:05;;;;;;;4.03;3.38;;;;;;;;;;5093443;28;20020;-77
2022/07/07 02:06:31;;;;;;;5.57;3.40;;;;;;;;;;5093409;28;20024;-79
2022/07/07 02:08:57;;;;;;;7.05;3.22;;;;;;;;;;5093442;28;20016;-79
2022/07/07 02:11:23;;;;;;;4.20;3.17;;;;;;;;;;5093399;28;20028;-78
2022/07/07 02:13:50;;;;;;;6.75;4.07;;;;;;;;;;5093164;28;20132;-74
2022/07/07 02:16:21;;;;;;;5.43;3.38;;;;;;;;;;5093376;28;20024;-73
2022/07/07 02:18:48;;;;;;;3.65;3.30;;;;;;;;;;5093200;28;20020;-72
2022/07/07 02:21:15;;;;;;;4.13;3.17;;;;;;;;;;5093507;28;20025;-80
2022/07/07 02:23:43;;;;;;;5.50;4.03;;;;;;;;;;5093544;28;20487;-78
2022/07/07 02:26:09;;;;;;;6.47;4.60;;;;;;;;;;5093340;28;20086;-81
2022/07/07 02:28:35;;;;;;;5.47;4.13;;;;;;;;;;5093430;28;20024;-78
2022/07/07 02:31:01;;;;;;;5.10;4.03;;;;;;;;;;5093187;28;20086;-72
2022/07/07 02:33:27;;;;;;;5.10;3.42;;;;;;;;;;5093297;28;20081;-73
2022/07/07 02:35:54;;;;;;;4.15;3.22;;;;;;;;;;5093088;28;20028;-72
2022/07/07 02:38:22;;;;;;;5.43;3.80;;;;;;;;;;5093065;28;20051;-72
2022/07/07 02:40:48;;;;;;;4.88;3.72;;;;;;;;;;5093058;28;20020;-72
2022/07/07 02:43:14;;;;;;;5.10;3.45;;;;;;;;;;5093396;28;20481;-72
2022/07/07 02:45:41;;;;;;;6.05;3.72;;;;;;;;;;5092953;28;20039;-72
2022/07/07 02:48:08;;;;;;;4.07;2.92;;;;;;;;;;5093131;28;20020;-72
2022/07/07 02:50:34;;;;;;;6.07;3.20;;;;;;;;;;5093087;28;20032;-73
2022/07/07 02:53:00;;;;;;;4.68;3.60;;;;;;;;;;5093355;28;20052;-78
2022/07/07 02:55:27;;;;;;;7.28;3.28;;;;;;;;;;5093256;28;20036;-78
2022/07/07 02:57:53;;;;;;;7.13;3.53;;;;;;;;;;5093341;28;20492;-78
2022/07/07 03:00:19;;;;;;;4.30;3.05;;;;;;;;;;5092935;28;20036;-72
2022/07/07 03:02:45;;;;;;;5.65;3.33;;;;;;;;;;5092971;28;20020;-73
2022/07/07 03:05:11;;;;;;;6.55;3.40;;;;;;;;;;5096250;28;20333;-73
2022/07/07 03:07:37;;;;;;;3.53;3.15;;;;;;;;;;5096854;28;20416;-77
2022/07/07 03:10:05;;;;;;;3.33;3.00;;;;;;;;;;5096804;28;20076;-75
2022/07/07 03:12:31;;;;;;;5.93;3.20;;;;;;;;;;5096669;28;20083;-76
2022/07/07 03:14:57;;;;;;;6.20;3.50;;;;;;;;;;5096474;28;20036;-75
2022/07/07 03:17:23;;;;;;;4.05;3.38;;;;;;;;;;5096684;28;20385;-76
2022/07/07 03:19:49;;;;;;;4.50;3.15;;;;;;;;;;5096529;28;20055;-76
2022/07/07 03:22:15;;;;;;;6.57;3.63;;;;;;;;;;5096480;28;20024;-75
2022/07/07 03:24:41;;;;;;;5.50;3.40;;;;;;;;;;5096516;28;20424;-80
2022/07/07 03:27:07;;;;;;;5.95;3.50;;;;;;;;;;5096395;28;20031;-78
2022/07/07 03:29:33;;;;;;;5.72;3.20;;;;;;;;;;5096393;28;20024;-75
2022/07/07 03:32:00;;;;;;;6.10;3.40;;;;;;;;;;5096123;28;20430;-79
2022/07/07 03:34:26;;;;;;;3.97;3.17;;;;;;;;;;5096403;28;20377;-80
2022/07/07 03:36:52;;;;;;;7.18;3.55;;;;;;;;;;5096374;28;20418;-80
2022/07/07 03:39:18;;;;;;;5.82;3.75;;;;;;;;;;5096210;28;20023;-80
2022/07/07 03:41:44;;;;;;;5.45;3.45;;;;;;;;;;5096259;28;20108;-79
2022/07/07 03:44:10;;;;;;;3.85;3.05;;;;;;;;;;5096161;28;20024;-80
2022/07/07 03:46:36;;;;;;;5.72;3.33;;;;;;;;;;5096062;28;20362;-80
2022/07/07 03:49:02;;;;;;;4.07;3.30;;;;;;;;;;5096215;28;20031;-74
2022/07/07 03:51:29;;;;;;;5.30;3.35;;;;;;;;;;5095960;28;20048;-80
2022/07/07 03:53:55;;;;;;;7.68;3.50;;;;;;;;;;5096110;28;20099;-80
2022/07/07 03:56:21;;;;;;;5.03;3.58;;;;;;;;;;5096170;28;20035;-80
2022/07/07 03:58:47;;;;;;;5.00;3.30;;;;;;;;;;5095933;28;20462;-77
2022/07/07 04:01:13;;;;;;;3.97;3.42;;;;;;;;;;5095763;28;20024;-80
2022/07/07 04:03:39;;;;;;;6.65;3.08;;;;;;;;;;5096154;28;20036;-83
2022/07/07 04:06:05;;;;;;;11.57;3.80;;;;;;;;;;5095753;28;20024;-80
2022/07/07 04:08:31;;;;;;;6.28;3.60;;;;;;;;;;5095618;28;20028;-80
2022/07/07 04:10:58;;;;;;;6.38;3.30;;;;;;;;;;5077093;28;20451;-80
2022/07/07 04:13:24;;;;;;;5.10;3.20;;;;;;;;;;5095289;28;20047;-79
2022/07/07 04:15:50;;;;;;;6.38;3.42;;;;;;;;;;5095335;28;20024;-79
2022/07/07 04:18:16;;;;;;;5.63;3.70;;;;;;;;;;5095421;28;20028;-80
2022/07/07 04:20:43;;;;;;;5.95;3.80;;;;;;;;;;5095377;28;20027;-80
2022/07/07 04:23:09;;;;;;;5.07;3.17;;;;;;;;;;5095414;28;20074;-80
2022/07/07 04:25:35;;;;;;;10.75;3.78;;;;;;;;;;5095267;28;20107;-80
2022/07/07 04:28:01;;;;;;;5.63;3.60;;;;;;;;;;5095302;28;20026;-79
2022/07/07 04:30:27;;;;;;;4.20;3.60;;;;;;;;;;5095121;28;20035;-78
2022/07/07 04:32:53;;;;;;;8.02;3.40;;;;;;;;;;5094882;28;20474;-80
2022/07/07 04:35:19;;;;;;;7.55;3.30;;;;;;;;;;5095077;28;20051;-79
2022/07/07 04:37:45;;;;;;;8.13;5.32;;;;;;;;;;5095150;28;20024;-83
2022/07/07 04:40:11;;;;;;;5.75;4.00;;;;;;;;;;5095020;28;20460;-81
2022/07/07 04:42:37;;;;;;;5.30;3.90;;;;;;;;;;5095186;28;20073;-83
2022/07/07 04:45:04;;;;;;;7.03;3.70;;;;;;;;;;5094687;28;20028;-79
2022/07/07 04:47:30;;;;;;;7.15;5.18;;;;;;;;;;5094823;28;20020;-80
2022/07/07 04:49:56;;;;;;;9.23;4.10;;;;;;;;;;5094824;28;20020;-79
2022/07/07 04:52:22;;;;;;;4.85;4.05;;;;;;;;;;5094792;28;20028;-79
2022/07/07 04:54:48;;;;;;;4.80;3.90;;;;;;;;;;5095072;28;20024;-79
2022/07/07 04:57:14;;;;;;;5.65;3.50;;;;;;;;;;5094619;28;20474;-79
2022/07/07 04:59:40;;;;;;;3.72;3.20;;;;;;;;;;5094769;28;20024;-80
2022/07/07 05:02:07;;;;;;;4.30;3.20;;;;;;;;;;5094577;28;20101;-80
2022/07/07 05:04:33;;;;;;;6.82;3.72;;;;;;;;;;5094795;28;20027;-81
2022/07/07 05:06:59;;;;;;;5.38;3.90;;;;;;;;;;5094512;28;20103;-78
2022/07/07 05:09:25;;;;;;;5.97;4.35;;;;;;;;;;5094552;28;20020;-83
2022/07/07 05:11:51;;;;;;;10.43;3.83;;;;;;;;;;5094482;28;20036;-83
2022/07/07 05:14:17;;;;;;;4.65;3.60;;;;;;;;;;5094352;28;20051;-79
2022/07/07 05:16:43;;;;;;;6.32;3.80;;;;;;;;;;5094389;28;20028;-84
2022/07/07 05:19:09;;;;;;;6.55;3.72;;;;;;;;;;5076151;28;20032;-81
2022/07/07 05:21:35;;;;;;;5.93;3.40;;;;;;;;;;5094377;28;20128;-82
2022/07/07 05:24:01;;;;;;;5.65;4.10;;;;;;;;;;5094244;28;20012;-80
2022/07/07 05:26:27;;;;;;;3.97;3.05;;;;;;;;;;5075309;28;20024;-81
2022/07/07 05:28:53;;;;;;;5.47;3.67;;;;;;;;;;5094349;28;20108;-83
2022/07/07 05:31:20;;;;;;;10.90;3.50;;;;;;;;;;5075730;28;20035;-79
2022/07/07 05:33:46;;;;;;;5.57;4.05;;;;;;;;;;5093977;28;20024;-84
2022/07/07 05:36:12;;;;;;;4.38;3.55;;;;;;;;;;5076045;28;20063;-83
2022/07/07 05:38:38;;;;;;;9.48;4.55;;;;;;;;;;5094181;28;20099;-82
2022/07/07 05:41:04;;;;;;;5.70;3.20;;;;;;;;;;5094139;28;20052;-83
2022/07/07 05:43:30;;;;;;;3.60;3.30;;;;;;;;;;5094074;28;20036;-83
2022/07/07 05:45:56;;;;;;;5.22;3.60;;;;;;;;;;5093534;28;20024;-74
2022/07/07 05:48:22;;;;;;;6.93;3.58;;;;;;;;;;5093652;28;20450;-80
2022/07/07 05:50:48;;;;;;;6.97;4.60;;;;;;;;;;5093581;28;20035;-79
2022/07/07 05:53:14;;;;;;;5.25;3.00;;;;;;;;;;5093468;28;20115;-81
2022/07/07 05:55:40;;;;;;;7.10;3.53;;;;;;;;;;5093640;28;20017;-76
2022/07/07 05:58:07;;;;;;;5.93;3.83;;;;;;;;;;5093867;28;20020;-78
2022/07/07 06:00:34;;;;;;;6.85;3.17;;;;;;;;;;5075420;28;20474;-80
2022/07/07 06:03:00;;;;;;;7.15;3.65;;;;;;;;;;5074869;28;20032;-81
2022/07/07 06:05:26;;;;;;;3.22;2.90;;;;;;;;;;5094093;28;20031;-83
2022/07/07 06:07:52;;;;;;;4.55;3.50;;;;;;;;;;5075600;28;20024;-83
2022/07/07 06:10:19;;;;;;;12.43;4.82;;;;;;;;;;5093860;28;20374;-78
2022/07/07 06:12:45;;;;;;;4.72;3.17;;;;;;;;;;5093787;28;20535;-83
2022/07/07 06:15:11;;;;;;;5.72;3.40;;;;;;;;;;5093682;28;20478;-83
2022/07/07 06:17:37;;;;;;;3.58;2.60;;;;;;;;;;5074926;28;20047;-81
2022/07/07 06:20:04;;;;;;;5.95;2.85;;;;;;;;;;5075482;28;20041;-83
2022/07/07 06:22:30;;;;;;;8.10;3.38;;;;;;;;;;5075351;28;20024;-81
2022/07/07 06:24:56;;;;;;;5.57;3.55;;;;;;;;;;5093434;28;20020;-80
2022/07/07 06:27:22;;;;;;;5.60;3.47;;;;;;;;;;5075111;28;20028;-77
2022/07/07 06:29:48;;;;;;;4.63;3.25;;;;;;;;;;5093181;28;20471;-83
2022/07/07 06:32:15;;;;;;;5.05;3.17;;;;;;;;;;5074737;28;20497;-81
2022/07/07 06:34:42;;;;;;;5.25;2.95;;;;;;;;;;5093246;28;20020;-80
2022/07/07 06:37:08;;;;;;;6.13;3.38;;;;;;;;;;5092973;28;20040;-81
2022/07/07 06:39:34;;;;;;;11.70;3.25;;;;;;;;;;5095661;28;20099;-81
2022/07/07 06:42:00;;;;;;;5.72;3.20;;;;;;;;;;5097366;28;20478;-81
2022/07/07 06:44:32;;;;;;;4.72;3.50;;;;;;;;;;5097240;28;20130;-81
2022/07/07 06:46:59;;;;;;;3.97;2.88;;;;;;;;;;5098206;28;20086;-84
2022/07/07 06:49:25;;;;;;;6.85;4.35;;;;;;;;;;5097152;28;20031;-80
2022/07/07 06:51:51;;;;;;;3.35;2.83;;;;;;;;;;5097228;28;20126;-82
2022/07/07 06:54:17;;;;;;;3.05;2.60;;;;;;;;;;5097516;28;20017;-83
2022/07/07 06:56:44;;;;;;;5.38;2.75;;;;;;;;;;5079248;28;20419;-84
2022/07/07 06:59:10;;;;;;;5.45;3.63;;;;;;;;;;5097380;28;20047;-83
2022/07/07 07:01:36;;;;;;;3.40;3.00;;;;;;;;;;5097236;28;20031;-84
2022/07/07 07:04:02;;;;;;;10.02;3.38;;;;;;;;;;5097425;28;20031;-84
2022/07/07 07:06:28;;;;;;;5.45;3.40;;;;;;;;;;5097460;28;20016;-84
2022/07/07 07:08:55;;;;;;;7.53;5.93;;;;;;;;;;5079136;28;20028;-84
2022/07/07 07:11:22;;;;;;;5.72;3.38;;;;;;;;;;5097067;28;20039;-84
2022/07/07 07:13:48;;;;;;;4.55;2.80;;;;;;;;;;5097028;28;20053;-84
2022/07/07 07:16:15;;;;;;;8.55;2.88;;;;;;;;;;5097217;28;20043;-83
2022/07/07 07:18:41;;;;;;;6.15;2.80;;;;;;;;;;5096611;28;20028;-80
2022/07/07 07:21:07;;;;;;;6.13;2.53;;;;;;;;;;5097045;28;20102;-84
2022/07/07 07:23:34;;;;;;;3.80;2.53;;;;;;;;;;5096700;28;20016;-83
2022/07/07 07:26:00;;;;;;;3.80;2.90;;;;;;;;;;5097050;28;20028;-84
2022/07/07 07:28:26;;;;;;;4.68;3.45;;;;;;;;;;5096600;28;20465;-83
2022/07/07 07:30:52;;;;;;;4.30;2.75;;;;;;;;;;5096714;28;20512;-82
2022/07/07 07:33:18;;;;;;;7.32;3.42;;;;;;;;;;5078321;28;20024;-84
2022/07/07 07:35:44;;;;;;;4.50;2.60;;;;;;;;;;5096162;28;20504;-79
2022/07/07 07:38:10;;;;;;;2.92;2.58;;;;;;;;;;5096188;28;20505;-79
2022/07/07 07:40:36;;;;;;;5.05;2.65;;;;;;;;;;5096189;28;20047;-80
2022/07/07 07:43:03;;;;;;;5.80;3.00;;;;;;;;;;5096202;28;20099;-82
2022/07/07 07:45:29;;;;;;;5.82;2.70;;;;;;;;;;5096312;28;20032;-82
2022/07/07 07:48:01;;;;;;;3.35;2.50;;;;;;;;;;5096250;28;20450;-83
2022/07/07 07:50:28;;;;;;;4.97;2.83;;;;;;;;;;5095582;28;20043;-82
2022/07/07 07:52:54;;;;;;;4.53;3.50;;;;;;;;;;5096260;28;20032;-83
2022/07/07 07:55:21;;;;;;;4.15;3.00;;;;;;;;;;5096227;28;20146;-84
2022/07/07 07:57:48;;;;;;;3.22;2.53;;;;;;;;;;5078078;28;20032;-83
2022/07/07 08:00:15;;;;;;;4.13;2.63;;;;;;;;;;5096144;28;20062;-83
2022/07/07 08:02:41;;;;;;;4.10;2.80;;;;;;;;;;5095937;28;20473;-81
2022/07/07 08:05:10;;;;;;;3.13;2.30;;;;;;;;;;5095954;28;20024;-82
2022/07/07 08:07:36;;;;;;;3.72;2.47;;;;;;;;;;5095720;28;20034;-83
2022/07/07 08:10:02;;;;;;;4.93;4.22;;;;;;;;;;5095681;28;20024;-82
2022/07/07 08:12:28;;;;;;;6.57;5.25;;;;;;;;;;5095885;28;20052;-76
2022/07/07 08:14:55;;;;;;;7.72;3.58;;;;;;;;;;5095477;28;20027;-82
2022/07/07 08:17:21;;;;;;;6.53;4.10;;;;;;;;;;5095397;28;20430;-81
2022/07/07 08:19:47;;;;;;;7.70;4.43;;;;;;;;;;5095563;28;20052;-79
2022/07/07 08:22:14;;;;;;;8.77;7.10;;;;;;;;;;5095519;28;20071;-76
2022/07/07 08:24:40;;;;;;;3.35;3.00;;;;;;;;;;5095488;28;20444;-82
2022/07/07 08:27:06;;;;;;;7.65;3.72;;;;;;;;;;5095313;28;20020;-82
2022/07/07 08:29:32;;;;;;;9.35;4.88;;;;;;;;;;5095563;28;20024;-83
2022/07/07 08:31:58;;;;;;;5.95;3.13;;;;;;;;;;5094983;28;20492;-83
2022/07/07 08:34:24;;;;;;;4.38;2.38;;;;;;;;;;5095313;28;20028;-76
2022/07/07 08:36:52;;;;;;;8.02;3.63;;;;;;;;;;5076379;28;20127;-80
2022/07/07 08:39:18;;;;;;;4.65;3.00;;;;;;;;;;5076656;28;20426;-83
2022/07/07 08:41:44;;;;;;;3.97;2.67;;;;;;;;;;5095181;28;20036;-83
2022/07/07 08:44:10;;;;;;;2.92;2.47;;;;;;;;;;5094973;28;20036;-80
2022/07/07 08:46:36;;;;;;;4.45;3.47;;;;;;;;;;5094825;28;20020;-81
2022/07/07 08:49:02;;;;;;;4.93;3.15;;;;;;;;;;5094760;28;20028;-83
2022/07/07 08:51:29;;;;;;;4.72;3.25;;;;;;;;;;5095061;28;20386;-83
2022/07/07 08:53:55;;;;;;;6.47;3.97;;;;;;;;;;5094668;28;20500;-81
2022/07/07 08:56:21;;;;;;;5.38;3.33;;;;;;;;;;5095002;28;20030;-81
2022/07/07 08:58:48;;;;;;;3.53;2.92;;;;;;;;;;5094895;28;20020;-83
2022/07/07 09:01:14;;;;;;;4.30;3.05;;;;;;;;;;5093439;28;20063;-79
2022/07/07 09:03:44;;;;;;;4.50;3.38;;;;;;;;;;5094210;28;20551;-79
2022/07/07 09:06:10;;;;;;;3.72;2.50;;;;;;;;;;5094466;28;20028;-82
2022/07/07 09:08:37;;;;;;;9.65;4.55;;;;;;;;;;5094618;28;20438;-81
2022/07/07 09:11:07;;;;;;;3.83;3.28;;;;;;;;;;5076036;28;20036;-81
2022/07/07 09:13:34;;;;;;;6.97;4.03;;;;;;;;;;5094445;28;20052;-83
2022/07/07 09:16:02;;;;;;;4.03;3.10;;;;;;;;;;5076077;28;20032;-82
2022/07/07 09:18:36;;;;;;;2.30;2.10;;;;;;;;;;5094528;28;20020;-83
2022/07/07 09:21:03;;;;;;;4.82;3.28;;;;;;;;;;5094375;28;20104;-77
2022/07/07 09:23:30;;;;;;;3.38;2.83;;;;;;;;;;5094372;28;20032;-81
2022/07/07 09:25:56;;;;;;;5.32;3.20;;;;;;;;;;5076168;28;20046;-83
2022/07/07 09:28:22;;;;;;;2.85;2.45;;;;;;;;;;5094293;28;20385;-83
2022/07/07 09:30:49;;;;;;;6.00;3.88;;;;;;;;;;5094498;28;20020;-81
2022/07/07 09:33:16;;;;;;;5.28;3.70;;;;;;;;;;5094027;28;20031;-82
2022/07/07 09:38:29;;;;;;;3.25;2.55;;;;;;;;;;5094531;28;20265;-83
2022/07/07 09:41:03;;;;;;;3.75;2.95;;;;;;;;;;5094133;28;20055;-80
2022/07/07 09:43:33;;;;;;;3.75;2.40;;;;;;;;;;5094314;28;20497;-80
2022/07/07 09:46:06;;;;;;;5.13;2.60;;;;;;;;;;5094139;28;20036;-82
2022/07/07 09:48:32;;;;;;;4.63;3.40;;;;;;;;;;5094418;28;20035;-83
2022/07/07 09:51:17;;;;;;;7.57;2.70;;;;;;;;;;5094272;28;20060;-83
2022/07/07 09:54:02;;;;;;;3.58;2.90;;;;;;;;;;5093883;28;20099;-79
2022/07/07 09:56:35;;;;;;;8.90;7.93;;;;;;;;;;5093649;28;20023;-79
2022/07/07 09:59:06;;;;;;;3.08;2.65;;;;;;;;;;5075935;28;20024;-83
2022/07/07 10:01:33;;;;;;;7.35;2.53;;;;;;;;;;5093499;28;20142;-81
2022/07/07 10:04:01;;;;;;;4.13;2.55;;;;;;;;;;5093759;28;20039;-83
2022/07/07 10:06:28;;;;;;;9.50;3.05;;;;;;;;;;5093666;28;20103;-83
2022/07/07 10:08:58;;;;;;;7.80;2.40;;;;;;;;;;5093848;28;20555;-83
2022/07/07 10:11:41;;;;;;;10.63;4.05;;;;;;;;;;5093539;28;20035;-82
2022/07/07 10:14:10;;;;;;;4.10;2.65;;;;;;;;;;5093181;28;20079;-81
2022/07/07 10:16:37;;;;;;;13.95;4.15;;;;;;;;;;5093739;28;20024;-76
2022/07/07 10:19:03;;;;;;;6.32;5.13;;;;;;;;;;5093955;28;20043;-84
2022/07/07 10:21:29;;;;;;;10.25;3.67;;;;;;;;;;5093838;28;20030;-82
2022/07/07 10:23:56;;;;;;;3.20;2.63;;;;;;;;;;5093214;28;20107;-79
2022/07/07 10:26:36;;;;;;;3.05;2.20;;;;;;;;;;5093309;28;20024;-80
2022/07/07 10:29:02;;;;;;;6.10;3.77;;;;;;;;;;5093195;28;20077;-79
2022/07/07 10:31:30;;;;;;;6.10;2.90;;;;;;;;;;5093503;28;20038;-79
2022/07/07 10:34:06;;;;;;;6.95;2.67;;;;;;;;;;5093129;28;20485;-78
2022/07/07 10:36:47;;;;;;;2.63;2.38;;;;;;;;;;5093332;28;20529;-78
2022/07/07 10:39:13;;;;;;;;;;;;;;;;;;5093664;28;20021;-78
2022/07/07 10:41:51;;;;;;;2.88;2.28;;;;;;;;;;5093103;28;20274;-79
2022/07/07 10:44:19;;;;;;;6.30;2.95;;;;;;;;;;5093110;28;20474;-78
2022/07/07 10:46:57;;;;;;;4.85;2.72;;;;;;;;;;5093058;28;20032;-79
2022/07/07 10:49:37;;;;;;;4.13;2.63;;;;;;;;;;5093044;28;20054;-80
2022/07/07 10:52:05;;;;;;;3.65;2.83;;;;;;;;;;5092948;28;20034;-79
2022/07/07 10:54:33;;;;;;;3.65;2.72;;;;;;;;;;5093209;28;20023;-82
2022/07/07 10:56:59;;;;;;;4.05;2.30;;;;;;;;;;5093056;28;20030;-80
2022/07/07 10:59:25;;;;;;;6.85;3.35;;;;;;;;;;5092937;28;20048;-79
2022/07/07 11:02:01;;;;;;;4.82;2.97;;;;;;;;;;5093010;28;20020;-79
2022/07/07 11:04:42;;;;;;;5.32;3.08;;;;;;;;;;5092977;28;20028;-79
2022/07/07 11:07:23;;;;;;;8.07;3.60;;;;;;;;;;5074962;28;20035;-80
2022/07/07 11:10:03;;;;;;;5.23;2.70;;;;;;;;;;5074875;28;20081;-83
2022/07/07 11:12:48;;;;;;;4.93;3.00;;;;;;;;;;5074425;28;20451;-79
2022/07/07 11:15:30;;;;;;;6.88;3.13;;;;;;;;;;5092819;28;20031;-79
2022/07/07 11:17:56;;;;;;;5.70;4.30;;;;;;;;;;5074323;28;20048;-79
2022/07/07 11:20:24;;;;;;;5.68;3.40;;;;;;;;;;5074524;28;20074;-75
2022/07/07 11:23:16;;;;;;;3.60;2.80;;;;;;;;;;5092377;28;20036;-79
2022/07/07 11:25:42;;;;;;;4.70;2.63;;;;;;;;;;5092398;28;20032;-83
2022/07/07 11:28:09;;;;;;;6.18;2.50;;;;;;;;;;5096590;28;20031;-83
2022/07/07 11:30:36;;;;;;;4.10;2.53;;;;;;;;;;5096514;28;20026;-80
2022/07/07 11:33:02;;;;;;;6.20;2.75;;;;;;;;;;5096294;28;20104;-82
2022/07/07 11:35:36;;;;;;;2.88;2.38;;;;;;;;;;5096477;28;20024;-82
2022/07/07 11:38:03;;;;;;;3.97;2.70;;;;;;;;;;5096278;28;20442;-81
2022/07/07 11:40:30;;;;;;;4.72;2.45;;;;;;;;;;5096261;28;20035;-80
2022/07/07 11:43:00;;;;;;;5.55;2.90;;;;;;;;;;5096637;28;20088;-81
2022/07/07 11:45:30;;;;;;;4.68;2.55;;;;;;;;;;5096288;28;20024;-82
2022/07/07 11:47:57;;;;;;;2.60;2.35;;;;;;;;;;5096349;28;20028;-78
2022/07/07 11:50:24;;;;;;;5.68;3.28;;;;;;;;;;5077994;28;20024;-82
2022/07/07 11:53:11;;;;;;;2.38;2.15;;;;;;;;;;5096066;28;20074;-75
2022/07/07 11:55:37;;;;;;;3.88;2.90;;;;;;;;;;5077931;28;20077;-81
2022/07/07 11:58:04;;;;;;;3.05;2.22;;;;;;;;;;5096173;28;20028;-81
2022/07/07 12:00:31;;;;;;;3.85;2.70;;;;;;;;;;5095965;28;20052;-82
2022/07/07 12:02:58;;;;;;;5.65;2.80;;;;;;;;;;5095621;28;20389;-79
2022/07/07 12:05:26;;;;;;;5.43;2.85;;;;;;;;;;5095402;28;20107;-79
2022/07/07 12:07:59;;;;;;;3.83;2.67;;;;;;;;;;5095481;28;20470;-81
2022/07/07 12:10:30;;;;;;;4.78;2.70;;;;;;;;;;5095736;28;20455;-80
2022/07/07 12:13:02;;;;;;;19.83;6.80;;;;;;;;;;5095523;28;20444;-80
2022/07/07 12:15:29;;;;;;;5.50;2.97;;;;;;;;;;5095450;28;20074;-80
2022/07/07 12:17:55;;;;;;;9.18;2.70;;;;;;;;;;5095599;28;20024;-80
2022/07/07 12:20:21;;;;;;;6.03;4.18;;;;;;;;;;5077249;28;20077;-80
2022/07/07 12:22:51;;;;;;;3.45;2.47;;;;;;;;;;5077196;28;20052;-81
2022/07/07 12:25:17;;;;;;;8.02;2.58;;;;;;;;;;5095457;28;20016;-80
2022/07/07 12:28:03;;;;;;;5.32;3.17;;;;;;;;;;5095430;28;20028;-80
2022/07/07 12:30:33;;;;;;;5.28;3.25;;;;;;;;;;5095224;28;20024;-80
2022/07/07 12:32:59;;;;;;;4.07;3.05;;;;;;;;;;5077045;28;20036;-80
2022/07/07 12:35:33;;;;;;;4.57;3.65;;;;;;;;;;5094998;28;20489;-79
2022/07/07 12:38:03;;;;;;;4.15;2.70;;;;;;;;;;5095135;28;20100;-77
2022/07/07 12:40:30;;;;;;;6.20;3.17;;;;;;;;;;5094909;28;20019;-79
2022/07/07 12:42:56;;;;;;;2.95;2.50;;;;;;;;;;5095223;28;20111;-79
2022/07/07 12:45:23;;;;;;;6.80;2.80;;;;;;;;;;5095030;28;20091;-78
2022/07/07 12:47:49;;;;;;;3.88;2.75;;;;;;;;;;5094961;28;20595;-79
2022/07/07 12:50:15;;;;;;;2.97;2.38;;;;;;;;;;5094679;28;20043;-79
2022/07/07 12:52:41;;;;;;;6.45;3.30;;;;;;;;;;5094618;28;20406;-79
2022/07/07 12:55:11;;;;;;;3.25;2.70;;;;;;;;;;5094885;28;20487;-79
2022/07/07 12:57:38;;;;;;;5.27;3.43;;;;;;;;;;5094614;28;20040;-80
2022/07/07 13:00:06;;;;;;;4.50;2.40;;;;;;;;;;5094468;28;20023;-79
2022/07/07 13:02:33;;;;;;;5.55;2.63;;;;;;;;;;5094365;28;20493;-79
2022/07/07 13:04:59;;;;;;;3.03;2.65;;;;;;;;;;5094384;28;20024;-79
2022/07/07 13:07:25;;;;;;;5.95;2.78;;;;;;;;;;5076330;28;20020;-79
2022/07/07 13:09:51;;;;;;;3.80;2.60;;;;;;;;;;5094507;28;20028;-79
2022/07/07 13:12:18;;;;;;;4.47;2.95;;;;;;;;;;5093894;28;20051;-79
2022/07/07 13:14:45;;;;;;;3.47;3.17;;;;;;;;;;5075946;28;20025;-80
2022/07/07 13:17:11;;;;;;;6.05;3.58;;;;;;;;;;5094146;28;20048;-79
2022/07/07 13:19:37;;;;;;;5.97;3.15;;;;;;;;;;5094018;28;20024;-80
2022/07/07 13:22:04;;;;;;;2.78;2.53;;;;;;;;;;5076301;28;20024;-79
2022/07/07 13:24:30;;;;;;;8.85;2.45;;;;;;;;;;5093961;28;20055;-79
2022/07/07 13:26:57;;;;;;;4.88;2.60;;;;;;;;;;5094185;28;20533;-79
2022/07/07 13:29:23;;;;;;;7.47;5.43;;;;;;;;;;5094167;28;20024;-79
2022/07/07 13:31:49;;;;;;;3.53;3.10;;;;;;;;;;5094016;28;20040;-79
2022/07/07 13:34:16;;;;;;;7.45;2.83;;;;;;;;;;5093797;28;20051;-79
2022/07/07 13:36:43;;;;;;;4.20;3.08;;;;;;;;;;5093966;28;20024;-79
2022/07/07 13:39:09;;;;;;;4.53;3.35;;;;;;;;;;5094018;28;20066;-79
2022/07/07 13:41:35;;;;;;;3.83;2.75;;;;;;;;;;5093868;28;20024;-79
2022/07/07 13:44:01;;;;;;;6.90;4.95;;;;;;;;;;5093890;28;20036;-79
2022/07/07 13:46:27;;;;;;;4.53;3.22;;;;;;;;;;5093705;28;20043;-79
2022/07/07 13:48:53;;;;;;;3.88;2.70;;;;;;;;;;5092937;28;20035;-77
2022/07/07 13:51:20;;;;;;;5.97;3.17;;;;;;;;;;5093688;28;20028;-79
2022/07/07 13:53:46;;;;;;;4.25;2.60;;;;;;;;;;5094098;28;20115;-81
2022/07/07 13:56:12;;;;;;;2.90;2.60;;;;;;;;;;5093762;28;20016;-79
2022/07/07 13:58:38;;;;;;;7.10;3.13;;;;;;;;;;5075218;28;20119;-79
2022/07/07 14:01:04;;;;;;;4.22;2.88;;;;;;;;;;5093571;28;20024;-81
2022/07/07 14:03:30;;;;;;;5.75;2.97;;;;;;;;;;5093605;28;20462;-82
2022/07/07 14:05:57;;;;;;;9.20;3.40;;;;;;;;;;5093636;28;20492;-81
2022/07/07 14:08:23;;;;;;;4.65;2.72;;;;;;;;;;5093596;28;20394;-79
2022/07/07 14:10:49;;;;;;;7.30;3.60;;;;;;;;;;5093106;28;20099;-74
2022/07/07 14:13:15;;;;;;;4.90;2.67;;;;;;;;;;5093217;28;20048;-76
2022/07/07 14:15:45;;;;;;;6.10;2.95;;;;;;;;;;5074736;28;20490;-73
2022/07/07 14:18:11;;;;;;;8.85;4.22;;;;;;;;;;5093367;28;20020;-74
2022/07/07 14:20:37;;;;;;;5.50;3.35;;;;;;;;;;5093110;28;20043;-74
2022/07/07 14:23:03;;;;;;;4.85;3.78;;;;;;;;;;5093159;28;20521;-73
2022/07/07 14:25:29;;;;;;;3.13;2.83;;;;;;;;;;5075024;28;20040;-79
2022/07/07 14:27:55;;;;;;;4.57;3.00;;;;;;;;;;5093328;28;20028;-82
2022/07/07 14:30:22;;;;;;;3.42;2.80;;;;;;;;;;5075188;28;20020;-78
2022/07/07 14:32:48;;;;;;;5.55;2.90;;;;;;;;;;5093226;28;20114;-80
2022/07/07 14:35:14;;;;;;;9.43;3.60;;;;;;;;;;5093035;28;20405;-73
2022/07/07 14:37:40;;;;;;;4.43;2.90;;;;;;;;;;5093065;28;20107;-72
2022/07/07 14:40:06;;;;;;;3.13;2.33;;;;;;;;;;5093578;28;20020;-82
2022/07/07 14:42:32;;;;;;;5.13;2.53;;;;;;;;;;5093390;28;20084;-80
2022/07/07 14:44:59;;;;;;;4.93;3.05;;;;;;;;;;5093065;28;20032;-75
2022/07/07 14:47:25;;;;;;;2.80;2.58;;;;;;;;;;5093168;28;20047;-76